createdAt,value
2023-05-17T00:01:50.600Z,2.20
2023-05-17T00:07:13.651Z,2.70
2023-05-17T00:09:42.979Z,2.50
2023-05-17T00:12:11.073Z,2.70
2023-05-17T00:14:39.056Z,2.57
2023-05-17T00:17:07.194Z,3.60
2023-05-17T00:19:35.287Z,2.60
2023-05-17T00:22:03.263Z,2.70
2023-05-17T00:24:31.219Z,3.00
2023-05-17T00:27:00.629Z,2.77
2023-05-17T00:29:28.621Z,2.20
2023-05-17T00:31:56.621Z,2.77
2023-05-17T00:34:24.629Z,2.70
2023-05-17T00:36:52.680Z,2.40
2023-05-17T00:39:20.683Z,2.33
2023-05-17T00:41:48.733Z,3.03
2023-05-17T00:44:18.110Z,3.47
2023-05-17T00:46:46.864Z,2.90
2023-05-17T00:49:14.911Z,2.80
2023-05-17T00:51:43.024Z,2.70
2023-05-17T00:54:11.894Z,2.90
2023-05-17T00:56:40.330Z,4.00
2023-05-17T00:59:08.539Z,2.67
2023-05-17T01:01:39.199Z,2.93
2023-05-17T01:04:07.762Z,3.20
2023-05-17T01:06:36.539Z,3.10
2023-05-17T01:09:05.080Z,3.10
2023-05-17T01:11:40.946Z,2.83
2023-05-17T01:14:19.229Z,3.07
2023-05-17T01:16:52.224Z,3.70
2023-05-17T01:19:37.911Z,3.13
2023-05-17T01:22:14.600Z,3.00
2023-05-17T01:24:51.212Z,4.20
2023-05-17T01:27:22.054Z,3.10
2023-05-17T01:29:51.226Z,3.17
2023-05-17T01:32:19.335Z,2.90
2023-05-17T01:34:47.732Z,3.20
2023-05-17T01:37:15.718Z,3.70
2023-05-17T01:39:43.820Z,3.33
2023-05-17T01:42:17.859Z,3.50
2023-05-17T01:44:51.552Z,3.90
2023-05-17T01:47:24.511Z,3.50
2023-05-17T01:49:55.235Z,3.40
2023-05-17T01:52:28.306Z,3.17
2023-05-17T01:55:04.331Z,3.30
2023-05-17T01:57:35.363Z,3.60
2023-05-17T02:00:08.052Z,3.83
2023-05-17T02:02:43.219Z,4.07
2023-05-17T02:05:11.296Z,3.53
2023-05-17T02:07:41.398Z,3.57
2023-05-17T02:10:10.268Z,3.83
2023-05-17T02:12:43.468Z,3.40
2023-05-17T02:15:13.913Z,4.07
2023-05-17T02:17:42.251Z,3.73
2023-05-17T02:20:11.920Z,3.10
2023-05-17T02:22:40.006Z,3.07
2023-05-17T02:25:09.044Z,2.93
2023-05-17T02:27:37.488Z,3.80
2023-05-17T02:30:06.720Z,3.57
2023-05-17T02:32:36.178Z,3.50
2023-05-17T02:35:04.516Z,3.40
2023-05-17T02:37:32.521Z,3.47
2023-05-17T02:40:00.567Z,3.00
2023-05-17T02:42:28.552Z,3.77
2023-05-17T02:44:58.028Z,3.60
2023-05-17T02:47:26.194Z,3.80
2023-05-17T02:49:55.688Z,4.00
2023-05-17T02:52:23.742Z,3.70
2023-05-17T02:54:51.881Z,3.87
2023-05-17T02:57:20.274Z,4.23
2023-05-17T02:59:48.507Z,4.20
2023-05-17T03:02:16.830Z,4.33
2023-05-17T03:04:44.950Z,3.73
2023-05-17T03:07:14.438Z,4.93
2023-05-17T03:09:43.567Z,4.47
2023-05-17T03:12:11.771Z,4.93
2023-05-17T03:14:40.321Z,4.27
2023-05-17T03:17:08.341Z,3.80
2023-05-17T03:19:37.139Z,4.20
2023-05-17T03:22:05.318Z,3.90
2023-05-17T03:24:36.050Z,3.80
2023-05-17T03:27:04.271Z,4.17
2023-05-17T03:29:32.960Z,3.73
2023-05-17T03:32:01.168Z,4.40
2023-05-17T03:34:29.480Z,3.90
2023-05-17T03:36:57.624Z,3.87
2023-05-17T03:39:25.775Z,4.07
2023-05-17T03:41:55.218Z,4.37
2023-05-17T03:44:24.270Z,3.53
2023-05-17T03:46:53.513Z,4.40
2023-05-17T03:49:24.573Z,4.90
2023-05-17T03:51:53.286Z,4.83
2023-05-17T03:54:21.307Z,4.90
2023-05-17T03:56:50.290Z,4.37
2023-05-17T03:59:20.840Z,4.60
2023-05-17T04:01:48.993Z,4.57
2023-05-17T04:04:17.064Z,5.37
2023-05-17T04:06:45.175Z,4.57
2023-05-17T04:09:15.433Z,4.70
2023-05-17T04:11:43.863Z,5.63
2023-05-17T04:14:13.095Z,5.23
2023-05-17T04:16:42.485Z,5.30
2023-05-17T04:19:10.944Z,5.47
2023-05-17T04:21:38.984Z,5.90
2023-05-17T04:24:08.001Z,6.07
2023-05-17T04:26:36.180Z,5.67
2023-05-17T04:29:04.321Z,6.00
2023-05-17T04:31:32.900Z,6.07
2023-05-17T04:34:03.241Z,5.03
2023-05-17T04:36:31.676Z,5.37
2023-05-17T04:39:00.554Z,6.00
2023-05-17T04:41:31.396Z,6.10
2023-05-17T04:44:00.014Z,6.33
2023-05-17T04:46:33.845Z,5.97
2023-05-17T04:49:03.337Z,5.43
2023-05-17T04:51:32.110Z,5.83
2023-05-17T04:54:01.091Z,5.93
2023-05-17T04:56:31.632Z,6.60
2023-05-17T04:59:00.188Z,6.00
2023-05-17T05:01:29.414Z,6.87
2023-05-17T05:03:58.293Z,6.10
2023-05-17T05:06:27.915Z,6.37
2023-05-17T05:08:56.157Z,6.17
2023-05-17T05:11:24.979Z,6.60
2023-05-17T05:13:53.265Z,6.80
2023-05-17T05:16:21.587Z,7.10
2023-05-17T05:18:50.141Z,6.63
2023-05-17T05:21:18.420Z,7.03
2023-05-17T05:23:47.758Z,7.23
2023-05-17T05:26:16.789Z,8.50
2023-05-17T05:28:44.878Z,6.80
2023-05-17T05:31:13.362Z,7.83
2023-05-17T05:33:47.881Z,7.77
2023-05-17T05:36:16.113Z,7.70
2023-05-17T05:38:44.130Z,7.83
2023-05-17T05:41:13.506Z,8.10
2023-05-17T05:43:42.292Z,8.17
2023-05-17T05:46:10.288Z,8.47
2023-05-17T05:48:41.679Z,8.40
2023-05-17T05:51:10.860Z,8.00
2023-05-17T05:53:41.691Z,8.00
2023-05-17T05:56:11.009Z,8.20
2023-05-17T05:58:40.836Z,8.37
2023-05-17T06:01:10.262Z,8.43
2023-05-17T06:03:38.629Z,9.47
2023-05-17T06:06:07.358Z,9.00
2023-05-17T06:08:35.433Z,9.50
2023-05-17T06:11:03.490Z,9.07
2023-05-17T06:13:33.788Z,9.27
2023-05-17T06:16:03.650Z,9.93
2023-05-17T06:18:31.820Z,9.40
2023-05-17T06:21:00.045Z,10.53
2023-05-17T06:23:28.070Z,10.30
2023-05-17T06:25:56.063Z,10.27
2023-05-17T06:28:24.079Z,9.83
2023-05-17T06:30:52.076Z,10.30
2023-05-17T06:33:21.617Z,11.53
2023-05-17T06:35:57.082Z,11.30
2023-05-17T06:38:26.286Z,11.50
2023-05-17T06:40:54.925Z,11.57
2023-05-17T06:43:23.042Z,13.43
2023-05-17T06:45:51.134Z,14.10
2023-05-17T06:48:19.290Z,14.30
2023-05-17T06:50:48.745Z,13.70
2023-05-17T06:53:17.160Z,14.47
2023-05-17T06:55:45.206Z,15.70
2023-05-17T06:58:13.325Z,18.43
2023-05-17T07:00:41.332Z,21.83
2023-05-17T07:03:10.051Z,23.00
2023-05-17T07:05:38.121Z,22.20
2023-05-17T07:08:07.627Z,22.33
2023-05-17T07:10:35.638Z,22.17
2023-05-17T07:13:03.652Z,23.03
2023-05-17T07:15:31.882Z,20.90
2023-05-17T07:18:00.758Z,20.87
2023-05-17T07:20:29.093Z,22.87
2023-05-17T07:22:57.269Z,20.47
2023-05-17T07:25:26.688Z,20.03
2023-05-17T07:27:54.797Z,18.70
2023-05-17T07:30:22.800Z,18.77
2023-05-17T07:32:50.833Z,17.00
2023-05-17T07:35:20.971Z,16.40
2023-05-17T07:37:49.907Z,16.03
2023-05-17T07:40:18.056Z,13.77
2023-05-17T07:42:47.440Z,12.23
2023-05-17T07:45:15.538Z,13.60
2023-05-17T07:47:43.667Z,13.37
2023-05-17T07:50:12.478Z,12.20
2023-05-17T07:52:40.458Z,11.27
2023-05-17T07:55:09.329Z,10.43
2023-05-17T07:57:37.291Z,9.90
2023-05-17T08:00:08.869Z,11.27
2023-05-17T08:02:39.782Z,10.37
2023-05-17T08:05:08.588Z,10.40
2023-05-17T08:07:36.665Z,9.57
2023-05-17T08:10:05.378Z,8.77
2023-05-17T08:12:33.446Z,7.03
2023-05-17T08:15:01.471Z,13.00
2023-05-17T08:17:31.414Z,7.57
2023-05-17T08:19:59.455Z,6.33
2023-05-17T08:22:27.601Z,7.20
2023-05-17T08:24:55.601Z,6.07
2023-05-17T08:27:25.503Z,6.03
2023-05-17T08:29:54.944Z,6.07
2023-05-17T08:32:23.571Z,5.73
2023-05-17T08:34:53.234Z,5.67
2023-05-17T08:37:21.358Z,5.43
2023-05-17T08:39:50.199Z,5.53
2023-05-17T08:42:25.213Z,5.17
2023-05-17T08:44:53.534Z,4.80
2023-05-17T08:47:29.733Z,5.27
2023-05-17T08:50:00.642Z,4.60
2023-05-17T08:52:32.021Z,5.23
2023-05-17T08:55:02.576Z,4.67
2023-05-17T08:57:36.260Z,5.63
2023-05-17T09:00:06.868Z,5.47
2023-05-17T09:02:35.011Z,5.40
2023-05-17T09:05:05.555Z,5.40
2023-05-17T09:07:33.722Z,5.03
2023-05-17T09:10:05.712Z,4.77
2023-05-17T09:12:35.672Z,4.87
2023-05-17T09:15:15.224Z,4.27
2023-05-17T09:17:44.093Z,2.83
2023-05-17T09:20:13.821Z,3.10
2023-05-17T09:22:42.392Z,3.17
2023-05-17T09:25:10.789Z,2.97
2023-05-17T09:27:39.060Z,2.50
2023-05-17T09:30:13.444Z,2.90
2023-05-17T09:32:44.953Z,2.30
2023-05-17T09:35:15.115Z,2.53
2023-05-17T09:37:45.197Z,2.43
2023-05-17T09:40:23.482Z,2.67
2023-05-17T09:42:51.626Z,2.03
2023-05-17T09:45:22.873Z,2.50
2023-05-17T09:47:51.546Z,2.50
2023-05-17T09:50:25.358Z,3.00
2023-05-17T09:52:54.257Z,2.70
2023-05-17T09:55:27.660Z,3.20
2023-05-17T09:58:04.044Z,2.50
2023-05-17T10:00:32.452Z,2.20
2023-05-17T10:03:01.891Z,2.13
2023-05-17T10:05:31.686Z,2.20
2023-05-17T10:08:00.133Z,2.80
2023-05-17T10:10:28.722Z,2.43
2023-05-17T10:12:57.483Z,2.40
2023-05-17T10:15:25.811Z,2.23
2023-05-17T10:17:54.618Z,2.67
2023-05-17T10:20:22.922Z,2.53
2023-05-17T10:22:52.583Z,2.97
2023-05-17T10:25:21.142Z,3.10
2023-05-17T10:27:50.153Z,4.07
2023-05-17T10:30:19.331Z,2.53
2023-05-17T10:32:54.327Z,2.80
2023-05-17T10:35:25.447Z,2.20
2023-05-17T10:37:55.083Z,2.40
2023-05-17T10:40:24.879Z,2.50
2023-05-17T10:42:57.473Z,2.90
2023-05-17T10:45:26.936Z,2.57
2023-05-17T10:47:56.121Z,2.60
2023-05-17T10:50:27.069Z,2.70
2023-05-17T10:52:59.795Z,2.93
2023-05-17T10:55:38.879Z,2.47
2023-05-17T10:58:18.171Z,2.67
2023-05-17T11:00:48.595Z,2.27
2023-05-17T11:03:21.414Z,2.60
2023-05-17T11:06:23.479Z,2.60
2023-05-17T11:09:10.577Z,2.87
2023-05-17T11:11:39.037Z,2.20
2023-05-17T11:14:08.628Z,2.40
2023-05-17T11:16:38.327Z,2.20
2023-05-17T11:19:10.454Z,2.80
2023-05-17T11:21:47.109Z,2.90
2023-05-17T11:24:22.260Z,2.40
2023-05-17T11:26:51.574Z,2.50
2023-05-17T11:29:19.587Z,2.40
2023-05-17T11:31:52.752Z,2.13
2023-05-17T11:34:23.357Z,2.60
2023-05-17T11:36:52.934Z,2.50
2023-05-17T11:39:23.748Z,2.50
2023-05-17T11:41:52.791Z,2.50
2023-05-17T11:44:26.136Z,2.83
2023-05-17T11:47:01.884Z,2.37
2023-05-17T11:49:35.955Z,2.70
2023-05-17T11:52:06.115Z,2.37
2023-05-17T11:54:36.452Z,2.60
2023-05-17T11:57:05.067Z,2.10
2023-05-17T11:59:38.821Z,2.57
2023-05-17T12:02:07.071Z,2.27
2023-05-17T12:04:37.750Z,2.50
2023-05-17T12:07:06.288Z,3.43
2023-05-17T12:09:35.778Z,2.67
2023-05-17T12:12:04.666Z,2.40
2023-05-17T12:14:33.002Z,2.63
2023-05-17T12:17:02.652Z,2.30
2023-05-17T12:19:32.673Z,2.90
2023-05-17T12:22:08.877Z,2.63
2023-05-17T12:24:42.631Z,2.50
2023-05-17T12:27:11.180Z,2.63
2023-05-17T12:29:39.943Z,2.80
2023-05-17T12:32:09.422Z,3.40
2023-05-17T12:34:37.676Z,2.40
2023-05-17T12:37:10.158Z,2.30
2023-05-17T12:39:38.322Z,2.53
2023-05-17T12:42:08.444Z,2.20
2023-05-17T12:44:36.977Z,2.77
2023-05-17T12:47:05.424Z,2.30
2023-05-17T12:49:39.112Z,2.83
2023-05-17T12:52:07.742Z,3.57
2023-05-17T12:54:35.850Z,2.43
2023-05-17T12:57:15.895Z,2.37
2023-05-17T12:59:48.130Z,2.83
2023-05-17T13:02:16.632Z,2.60
2023-05-17T13:04:44.782Z,2.37
2023-05-17T13:07:13.024Z,2.53
2023-05-17T13:09:47.900Z,3.40
2023-05-17T13:12:22.205Z,2.63
2023-05-17T13:14:53.088Z,3.07
2023-05-17T13:17:25.754Z,3.10
2023-05-17T13:19:54.058Z,3.03
2023-05-17T13:22:22.793Z,2.73
2023-05-17T13:24:51.293Z,2.70
2023-05-17T13:27:21.212Z,2.33
2023-05-17T13:29:49.296Z,2.70
2023-05-17T13:32:17.294Z,2.47
2023-05-17T13:34:45.388Z,2.00
2023-05-17T13:37:13.401Z,2.63
2023-05-17T13:39:41.833Z,2.53
2023-05-17T13:42:10.646Z,3.20
2023-05-17T13:44:40.696Z,2.73
2023-05-17T13:47:08.831Z,2.60
2023-05-17T13:49:37.325Z,2.77
2023-05-17T13:52:08.619Z,2.90
2023-05-17T13:54:39.196Z,2.67
2023-05-17T13:57:07.964Z,2.40
2023-05-17T13:59:36.231Z,2.10
2023-05-17T14:02:05.706Z,2.30
2023-05-17T14:04:34.962Z,2.40
2023-05-17T14:07:03.458Z,3.63
2023-05-17T14:09:33.840Z,2.40
2023-05-17T14:12:02.033Z,2.40
2023-05-17T14:14:30.809Z,2.40
2023-05-17T14:16:58.995Z,2.50
2023-05-17T14:19:28.491Z,2.70
2023-05-17T14:21:56.698Z,2.17
2023-05-17T14:24:24.769Z,2.30
2023-05-17T14:26:52.756Z,2.70
2023-05-17T14:29:20.927Z,2.23
2023-05-17T14:31:48.927Z,2.30
2023-05-17T14:34:17.312Z,2.17
2023-05-17T14:36:47.045Z,2.90
2023-05-17T14:39:15.073Z,2.40
2023-05-17T14:41:44.886Z,2.43
2023-05-17T14:44:13.242Z,2.43
2023-05-17T14:46:41.397Z,2.80
2023-05-17T14:49:09.578Z,2.43
2023-05-17T14:51:37.770Z,2.30
2023-05-17T14:54:07.233Z,2.27
2023-05-17T14:56:35.276Z,2.33
2023-05-17T14:59:03.342Z,2.57
2023-05-17T15:01:31.344Z,2.20
2023-05-17T15:03:59.455Z,2.43
2023-05-17T15:06:27.792Z,2.00
2023-05-17T15:08:55.751Z,3.13
2023-05-17T15:11:25.247Z,3.07
2023-05-17T15:13:53.598Z,4.00
2023-05-17T15:16:22.111Z,2.73
2023-05-17T15:18:50.207Z,2.27
2023-05-17T15:21:19.081Z,3.10
2023-05-17T15:23:47.899Z,2.27
2023-05-17T15:26:15.886Z,2.17
2023-05-17T15:28:45.333Z,2.57
2023-05-17T15:31:13.345Z,2.20
2023-05-17T15:33:43.176Z,2.40
2023-05-17T15:36:13.191Z,2.50
2023-05-17T15:38:41.385Z,2.53
2023-05-17T15:41:14.205Z,2.57
2023-05-17T15:43:42.727Z,2.40
2023-05-17T15:46:12.643Z,2.33
2023-05-17T15:48:41.058Z,2.10
2023-05-17T15:51:09.224Z,2.40
2023-05-17T15:53:37.355Z,2.20
2023-05-17T15:56:05.627Z,2.40
2023-05-17T15:58:34.137Z,2.93
2023-05-17T16:01:04.465Z,2.63
2023-05-17T16:03:34.041Z,2.40
2023-05-17T16:06:04.190Z,2.30
2023-05-17T16:08:32.287Z,2.10
2023-05-17T16:11:02.194Z,2.57
2023-05-17T16:13:30.676Z,2.40
2023-05-17T16:15:59.702Z,2.80
2023-05-17T16:18:27.889Z,2.40
2023-05-17T16:21:02.691Z,2.43
2023-05-17T16:23:31.358Z,2.70
2023-05-17T16:25:59.475Z,2.47
2023-05-17T16:28:35.513Z,3.53
2023-05-17T16:31:05.273Z,3.20
2023-05-17T16:33:33.302Z,2.47
2023-05-17T16:36:03.925Z,2.77
2023-05-17T16:38:32.016Z,2.47
2023-05-17T16:41:03.062Z,2.03
2023-05-17T16:43:31.235Z,2.70
2023-05-17T16:45:59.548Z,2.20
2023-05-17T16:48:27.705Z,2.43
2023-05-17T16:50:56.137Z,2.50
2023-05-17T16:53:28.137Z,3.00
2023-05-17T16:55:56.544Z,2.93
2023-05-17T16:58:26.052Z,2.77
2023-05-17T17:00:54.140Z,2.60
2023-05-17T17:03:22.219Z,2.10
2023-05-17T17:05:50.360Z,2.47
2023-05-17T17:08:18.543Z,2.67
2023-05-17T17:10:48.021Z,2.17
2023-05-17T17:13:15.947Z,2.60
2023-05-17T17:15:43.978Z,2.67
2023-05-17T17:18:12.136Z,2.27
2023-05-17T17:20:40.131Z,2.63
2023-05-17T17:23:08.616Z,3.00
2023-05-17T17:25:36.585Z,2.27
2023-05-17T17:28:06.357Z,2.03
2023-05-17T17:30:34.392Z,2.50
2023-05-17T17:33:02.537Z,2.40
2023-05-17T17:35:30.679Z,2.50
2023-05-17T17:37:59.239Z,2.60
2023-05-17T17:40:27.547Z,2.50
2023-05-17T17:42:55.851Z,2.57
2023-05-17T17:45:25.420Z,2.77
2023-05-17T17:47:53.544Z,2.50
2023-05-17T17:50:21.724Z,2.10
2023-05-17T17:52:50.825Z,2.30
2023-05-17T17:55:19.001Z,2.47
2023-05-17T17:57:47.227Z,2.60
2023-05-17T18:00:16.604Z,3.00
2023-05-17T18:02:46.181Z,2.33
2023-05-17T18:05:14.391Z,2.07
2023-05-17T18:07:42.434Z,2.10
2023-05-17T18:10:11.221Z,2.07
2023-05-17T18:12:39.244Z,2.03
2023-05-17T18:15:07.953Z,2.20
2023-05-17T18:17:35.985Z,2.17
2023-05-17T18:20:08.186Z,2.20
2023-05-17T18:22:36.392Z,2.30
2023-05-17T18:25:06.230Z,2.83
2023-05-17T18:27:35.169Z,2.30
2023-05-17T18:30:04.891Z,2.50
2023-05-17T18:32:34.501Z,2.20
2023-05-17T18:35:03.540Z,2.10
2023-05-17T18:37:34.508Z,2.27
2023-05-17T18:40:04.248Z,2.27
2023-05-17T18:42:33.468Z,2.37
2023-05-17T18:45:01.564Z,2.40
2023-05-17T18:47:30.188Z,2.70
2023-05-17T18:49:58.171Z,2.70
2023-05-17T18:52:26.210Z,2.50
2023-05-17T18:54:57.820Z,3.30
2023-05-17T18:57:28.105Z,2.20
2023-05-17T18:59:56.202Z,2.40
2023-05-17T19:02:24.292Z,2.80
2023-05-17T19:04:52.406Z,2.63
2023-05-17T19:07:20.720Z,2.13
2023-05-17T19:09:48.849Z,2.40
2023-05-17T19:12:18.461Z,2.30
2023-05-17T19:14:46.731Z,2.53
2023-05-17T19:17:14.891Z,2.73
2023-05-17T19:19:43.200Z,2.50
2023-05-17T19:22:11.599Z,3.00
2023-05-17T19:24:39.717Z,2.23
2023-05-17T19:27:07.926Z,3.13
2023-05-17T19:29:37.353Z,2.63
2023-05-17T19:32:07.666Z,2.60
2023-05-17T19:34:35.828Z,2.67
2023-05-17T19:37:04.428Z,2.70
2023-05-17T19:39:32.902Z,2.40
2023-05-17T19:42:02.408Z,2.90
2023-05-17T19:44:31.794Z,3.10
2023-05-17T19:47:01.633Z,2.90
2023-05-17T19:49:29.897Z,2.93
2023-05-17T19:52:01.121Z,2.80
2023-05-17T19:54:30.154Z,2.30
2023-05-17T19:56:59.588Z,2.50
2023-05-17T19:59:27.881Z,3.80
2023-05-17T20:01:56.030Z,2.83
2023-05-17T20:04:27.889Z,3.43
2023-05-17T20:06:55.981Z,3.10
2023-05-17T20:09:26.943Z,3.07
2023-05-17T20:11:55.280Z,2.90
2023-05-17T20:14:23.455Z,3.40
2023-05-17T20:16:51.820Z,3.40
2023-05-17T20:19:20.003Z,3.30
2023-05-17T20:21:50.505Z,3.30
2023-05-17T20:24:18.576Z,2.90
2023-05-17T20:26:48.815Z,3.70
2023-05-17T20:29:17.016Z,3.60
2023-05-17T20:31:45.155Z,4.00
2023-05-17T20:34:13.242Z,3.60
2023-05-17T20:36:41.314Z,3.20
2023-05-17T20:39:11.128Z,3.77
2023-05-17T20:41:39.101Z,3.47
2023-05-17T20:44:07.322Z,2.90
2023-05-17T20:46:35.616Z,4.37
2023-05-17T20:49:03.971Z,3.40
2023-05-17T20:51:32.116Z,3.40
2023-05-17T20:54:00.153Z,3.23
2023-05-17T20:56:29.845Z,2.83
2023-05-17T20:58:57.897Z,3.90
2023-05-17T21:01:26.557Z,3.40
2023-05-17T21:03:54.808Z,3.60
2023-05-17T21:06:23.229Z,3.80
2023-05-17T21:08:52.225Z,3.60
2023-05-17T21:11:22.091Z,3.70
2023-05-17T21:13:51.805Z,3.50
2023-05-17T21:16:19.884Z,3.57
2023-05-17T21:18:47.942Z,3.40
2023-05-17T21:21:15.976Z,3.40
2023-05-17T21:23:44.016Z,3.23
2023-05-17T21:26:12.120Z,3.33
2023-05-17T21:28:40.126Z,3.17
2023-05-17T21:31:09.599Z,4.10
2023-05-17T21:33:37.656Z,3.97
2023-05-17T21:36:05.961Z,3.73
2023-05-17T21:38:33.914Z,2.90
2023-05-17T21:41:01.976Z,3.37
2023-05-17T21:43:30.066Z,3.70
2023-05-17T21:45:58.076Z,3.07
2023-05-17T21:48:27.478Z,3.27
2023-05-17T21:50:55.675Z,5.00
2023-05-17T21:53:23.731Z,3.10
2023-05-17T21:58:25.937Z,3.63
2023-05-17T22:00:53.984Z,3.23
2023-05-17T22:03:22.177Z,4.03
2023-05-17T22:05:52.547Z,3.43
2023-05-17T22:08:20.554Z,3.20
2023-05-17T22:10:50.174Z,3.90
2023-05-17T22:13:19.108Z,3.60
2023-05-17T22:15:47.198Z,3.73
2023-05-17T22:18:15.368Z,2.90
2023-05-17T22:20:43.721Z,3.07
2023-05-17T22:23:13.330Z,3.17
2023-05-17T22:25:41.334Z,3.03
2023-05-17T22:28:09.360Z,2.90
2023-05-17T22:30:37.449Z,3.10
2023-05-17T22:33:06.358Z,3.03
2023-05-17T22:35:34.468Z,3.33
2023-05-17T22:38:02.451Z,3.70
2023-05-17T22:40:32.137Z,3.60
2023-05-17T22:43:00.437Z,4.60
2023-05-17T22:45:33.440Z,4.23
2023-05-17T22:48:05.560Z,3.27
2023-05-17T22:50:33.925Z,3.53
2023-05-17T22:53:02.074Z,3.63
2023-05-17T22:55:31.550Z,3.63
2023-05-17T22:57:59.768Z,3.23
2023-05-17T23:00:27.797Z,3.33
2023-05-17T23:02:56.022Z,3.80
2023-05-17T23:05:24.336Z,3.37
2023-05-17T23:07:52.361Z,3.67
2023-05-17T23:10:20.509Z,3.20
2023-05-17T23:12:51.551Z,3.43
2023-05-17T23:15:20.703Z,3.27
2023-05-17T23:17:48.764Z,3.73
2023-05-17T23:20:16.993Z,3.70
2023-05-17T23:22:45.021Z,3.47
2023-05-17T23:25:12.992Z,3.30
2023-05-17T23:27:41.020Z,3.77
2023-05-17T23:30:11.320Z,3.43
2023-05-17T23:32:39.307Z,3.40
2023-05-17T23:35:09.121Z,3.50
2023-05-17T23:37:37.758Z,3.47
2023-05-17T23:40:07.158Z,3.30
2023-05-17T23:42:35.570Z,3.30
2023-05-17T23:45:03.871Z,3.63
2023-05-17T23:47:34.087Z,4.00
2023-05-17T23:50:03.323Z,3.70
2023-05-17T23:52:32.743Z,3.57
2023-05-17T23:55:01.545Z,3.70
2023-05-17T23:57:29.990Z,3.97
2023-05-17T23:59:58.038Z,3.30
